createdAt,value
2023-04-28T00:04:41.664Z,28.50
2023-04-28T00:09:44.979Z,28.20
2023-04-28T00:14:49.405Z,28.30
2023-04-28T00:19:53.060Z,28.50
2023-04-28T00:24:56.193Z,28.40
2023-04-28T00:30:01.308Z,28.40
2023-04-28T00:35:04.512Z,28.60
2023-04-28T00:40:08.850Z,28.50
2023-04-28T00:45:13.451Z,28.50
2023-04-28T00:50:18.252Z,28.50
2023-04-28T00:55:21.611Z,28.80
2023-04-28T01:00:26.494Z,28.70
2023-04-28T01:05:30.875Z,28.80
2023-04-28T01:10:33.991Z,28.70
2023-04-28T01:15:38.722Z,28.70
2023-04-28T01:20:41.802Z,28.90
2023-04-28T01:25:46.415Z,28.70
2023-04-28T01:30:49.496Z,29.00
2023-04-28T01:35:52.570Z,29.00
2023-04-28T01:40:58.619Z,28.90
2023-04-28T01:46:01.715Z,29.30
2023-04-28T01:51:05.157Z,29.00
2023-04-28T01:56:09.675Z,29.20
2023-04-28T02:01:12.870Z,29.50
2023-04-28T02:06:16.157Z,29.20
2023-04-28T02:11:21.142Z,29.40
2023-04-28T02:16:24.314Z,29.70
2023-04-28T02:21:27.901Z,29.50
2023-04-28T02:26:32.569Z,29.60
2023-04-28T02:31:35.733Z,29.90
2023-04-28T02:36:40.096Z,29.70
2023-04-28T02:41:44.526Z,29.80
2023-04-28T02:46:47.668Z,30.00
2023-04-28T02:51:50.749Z,29.80
2023-04-28T02:56:55.286Z,29.70
2023-04-28T03:01:58.428Z,30.00
2023-04-28T03:07:01.588Z,29.90
2023-04-28T03:12:06.319Z,30.00
2023-04-28T03:17:09.382Z,30.80
2023-04-28T03:22:12.495Z,30.40
2023-04-28T03:27:17.003Z,30.90
2023-04-28T03:32:20.129Z,31.00
2023-04-28T03:37:23.453Z,30.60
2023-04-28T03:42:27.917Z,31.00
2023-04-28T03:47:31.102Z,30.90
2023-04-28T03:52:34.180Z,30.90
2023-04-28T03:57:38.632Z,30.80
2023-04-28T04:02:41.767Z,30.80
2023-04-28T04:07:44.909Z,30.70
2023-04-28T04:12:49.457Z,30.70
2023-04-28T04:17:52.598Z,30.90
2023-04-28T04:22:55.791Z,30.80
2023-04-28T04:28:00.792Z,31.10
2023-04-28T04:33:03.935Z,31.80
2023-04-28T04:38:07.493Z,31.30
2023-04-28T04:43:11.998Z,31.30
2023-04-28T04:48:15.150Z,31.90
2023-04-28T04:53:18.271Z,32.30
2023-04-28T04:58:22.904Z,31.60
2023-04-28T05:03:26.211Z,32.20
2023-04-28T05:08:29.457Z,31.90
2023-04-28T05:13:33.990Z,32.20
2023-04-28T05:18:37.117Z,33.00
2023-04-28T05:23:40.206Z,32.70
2023-04-28T05:28:44.715Z,32.90
2023-04-28T05:33:47.786Z,33.60
2023-04-28T05:38:51.018Z,33.30
2023-04-28T05:43:55.480Z,33.40
2023-04-28T05:48:58.758Z,34.10
2023-04-28T05:54:01.848Z,33.80
2023-04-28T05:59:06.549Z,34.00
2023-04-28T06:04:09.733Z,34.90
2023-04-28T06:09:12.949Z,34.30
2023-04-28T06:14:18.548Z,34.50
2023-04-28T06:19:21.908Z,35.50
2023-04-28T06:24:25.267Z,34.70
2023-04-28T06:29:29.820Z,35.00
2023-04-28T06:34:32.959Z,35.80
2023-04-28T06:39:36.291Z,35.20
2023-04-28T06:44:40.749Z,35.50
2023-04-28T06:49:45.598Z,36.20
2023-04-28T06:54:48.714Z,35.80
2023-04-28T06:59:53.399Z,35.90
2023-04-28T07:04:56.660Z,36.80
2023-04-28T07:10:00.581Z,36.20
2023-04-28T07:15:05.497Z,36.50
2023-04-28T07:20:09.858Z,37.30
2023-04-28T07:25:12.990Z,37.10
2023-04-28T07:30:27.291Z,36.90
2023-04-28T07:35:32.772Z,37.60
2023-04-28T07:40:35.920Z,37.20
2023-04-28T07:45:41.711Z,37.20
2023-04-28T07:50:44.886Z,38.30
2023-04-28T07:55:48.005Z,37.40
2023-04-28T08:00:52.443Z,37.40
2023-04-28T08:05:55.861Z,38.60
2023-04-28T08:10:59.220Z,38.00
2023-04-28T08:16:03.794Z,38.10
2023-04-28T08:21:06.970Z,38.90
2023-04-28T08:26:10.129Z,38.10
2023-04-28T08:31:14.689Z,38.10
2023-04-28T08:36:18.038Z,39.10
2023-04-28T08:41:21.845Z,39.30
2023-04-28T08:46:29.238Z,38.70
2023-04-28T08:51:37.058Z,40.40
2023-04-28T08:56:40.687Z,40.00
2023-04-28T09:01:45.231Z,38.90
2023-04-28T09:06:48.408Z,39.60
2023-04-28T09:11:56.557Z,39.20
2023-04-28T09:17:01.166Z,40.70
2023-04-28T09:22:17.677Z,39.80
2023-04-28T09:27:29.411Z,39.10
2023-04-28T09:32:34.369Z,39.60
2023-04-28T09:37:37.800Z,39.70
2023-04-28T09:42:42.571Z,39.30
2023-04-28T09:47:48.551Z,39.70
2023-04-28T09:52:59.175Z,40.20
2023-04-28T09:58:05.878Z,41.30
2023-04-28T10:03:11.781Z,40.10
2023-04-28T10:08:15.032Z,40.40
2023-04-28T10:13:19.482Z,39.70
2023-04-28T10:18:24.830Z,40.10
2023-04-28T10:23:58.655Z,40.60
2023-04-28T10:29:01.913Z,41.60
2023-04-28T10:34:25.496Z,40.20
2023-04-28T10:39:28.620Z,42.20
2023-04-28T10:44:44.809Z,40.40
2023-04-28T10:50:10.080Z,42.60
2023-04-28T10:55:32.881Z,42.60
2023-04-28T11:00:36.272Z,42.90
2023-04-28T11:05:40.759Z,40.90
2023-04-28T11:11:15.143Z,41.80
2023-04-28T11:16:21.188Z,42.40
2023-04-28T11:21:28.189Z,41.80
2023-04-28T11:26:32.215Z,42.40
2023-04-28T11:31:35.777Z,41.70
2023-04-28T11:36:41.951Z,42.00
2023-04-28T11:41:46.024Z,43.10
2023-04-28T11:46:53.772Z,42.60
2023-04-28T11:52:00.378Z,42.70
2023-04-28T11:57:05.017Z,43.40
2023-04-28T12:02:09.739Z,42.90
2023-04-28T12:07:15.833Z,43.00
2023-04-28T12:12:45.416Z,44.10
2023-04-28T12:17:53.337Z,45.20
2023-04-28T12:22:58.036Z,43.50
2023-04-28T12:28:02.478Z,44.50
2023-04-28T12:33:05.987Z,44.50
2023-04-28T12:38:14.025Z,44.50
2023-04-28T12:43:17.365Z,45.90
2023-04-28T12:48:20.525Z,44.40
2023-04-28T12:53:24.987Z,44.50
2023-04-28T12:58:28.035Z,45.00
2023-04-28T13:03:31.337Z,44.00
2023-04-28T13:08:36.198Z,43.70
2023-04-28T13:13:39.509Z,44.10
2023-04-28T13:18:42.579Z,43.60
2023-04-28T13:23:47.146Z,43.70
2023-04-28T13:28:50.224Z,44.40
2023-04-28T13:33:53.281Z,43.60
2023-04-28T13:38:58.613Z,43.70
2023-04-28T13:44:02.425Z,44.50
2023-04-28T13:50:01.855Z,43.80
2023-04-28T13:55:06.959Z,45.60
2023-04-28T14:00:11.609Z,45.00
2023-04-28T14:05:14.834Z,44.30
2023-04-28T14:10:19.407Z,44.10
2023-04-28T14:15:22.814Z,45.00
2023-04-28T14:20:27.898Z,44.90
2023-04-28T14:25:32.551Z,44.00
2023-04-28T14:30:36.078Z,45.00
2023-04-28T14:35:39.213Z,44.40
2023-04-28T14:40:43.988Z,44.40
2023-04-28T14:45:48.057Z,45.10
2023-04-28T14:50:51.416Z,44.50
2023-04-28T14:56:02.013Z,44.50
2023-04-28T15:01:10.593Z,45.20
2023-04-28T15:06:13.657Z,44.30
2023-04-28T15:11:18.094Z,44.50
2023-04-28T15:16:21.612Z,45.10
2023-04-28T15:21:24.891Z,44.70
2023-04-28T15:26:30.144Z,45.10
2023-04-28T15:31:33.674Z,45.40
2023-04-28T15:36:39.760Z,44.70
2023-04-28T15:41:44.195Z,45.40
2023-04-28T15:46:47.257Z,45.80
2023-04-28T15:51:50.422Z,45.20
2023-04-28T15:56:55.286Z,45.30
2023-04-28T16:01:58.366Z,46.10
2023-04-28T16:07:02.667Z,45.20
2023-04-28T16:12:07.550Z,45.20
2023-04-28T16:17:10.619Z,45.80
2023-04-28T16:22:13.727Z,45.30
2023-04-28T16:27:18.566Z,45.40
2023-04-28T16:32:21.854Z,46.40
2023-04-28T16:37:25.027Z,45.60
2023-04-28T16:42:29.476Z,45.50
2023-04-28T16:47:34.303Z,46.30
2023-04-28T16:52:37.715Z,45.60
2023-04-28T16:57:42.271Z,45.50
2023-04-28T17:02:45.569Z,46.40
2023-04-28T17:07:48.764Z,45.60
2023-04-28T17:12:53.518Z,45.50
2023-04-28T17:17:57.346Z,46.20
2023-04-28T17:23:00.465Z,45.60
2023-04-28T17:28:04.946Z,45.60
2023-04-28T17:33:08.061Z,46.40
2023-04-28T17:38:11.265Z,45.70
2023-04-28T17:43:16.245Z,45.60
2023-04-28T17:48:19.365Z,46.50
2023-04-28T17:53:22.600Z,45.70
2023-04-28T17:58:27.362Z,45.60
2023-04-28T18:03:30.987Z,46.30
2023-04-28T18:08:34.185Z,45.90
2023-04-28T18:13:38.612Z,45.70
2023-04-28T18:18:42.121Z,46.60
2023-04-28T18:23:47.063Z,46.00
2023-04-28T18:28:51.501Z,46.60
2023-04-28T18:33:55.254Z,46.60
2023-04-28T18:38:58.339Z,45.80
2023-04-28T18:44:03.956Z,45.60
2023-04-28T18:49:07.044Z,46.00
2023-04-28T18:54:10.190Z,45.20
2023-04-28T18:59:14.674Z,45.50
2023-04-28T19:04:17.900Z,46.20
2023-04-28T19:09:21.523Z,45.70
2023-04-28T19:14:26.045Z,45.90
2023-04-28T19:19:29.102Z,46.10
2023-04-28T19:24:32.456Z,45.60
2023-04-28T19:29:36.897Z,45.90
2023-04-28T19:34:39.947Z,46.50
2023-04-28T19:39:43.576Z,45.90
2023-04-28T19:44:48.813Z,46.10
2023-04-28T19:49:52.205Z,46.70
2023-04-28T19:54:55.750Z,46.00
2023-04-28T20:00:00.211Z,46.00
2023-04-28T20:05:03.756Z,46.50
2023-04-28T20:10:07.884Z,46.10
2023-04-28T20:15:12.529Z,46.30
2023-04-28T20:20:15.643Z,46.60
2023-04-28T20:25:18.966Z,46.10
2023-04-28T20:30:23.614Z,46.30
2023-04-28T20:35:26.696Z,46.60
2023-04-28T20:40:29.736Z,46.40
2023-04-28T20:45:35.162Z,46.50
2023-04-28T20:50:39.597Z,47.00
2023-04-28T20:55:42.659Z,46.80
2023-04-28T21:00:47.110Z,46.60
2023-04-28T21:05:50.595Z,46.80
2023-04-28T21:10:55.303Z,46.20
2023-04-28T21:15:59.758Z,46.10
2023-04-28T21:21:02.852Z,46.30
2023-04-28T21:26:06.716Z,45.90
2023-04-28T21:31:11.132Z,45.90
2023-04-28T21:36:14.351Z,46.30
2023-04-28T21:41:17.422Z,45.90
2023-04-28T21:46:21.930Z,45.90
2023-04-28T21:51:25.005Z,46.50
2023-04-28T21:56:28.064Z,46.20
2023-04-28T22:01:32.977Z,46.30
2023-04-28T22:06:36.394Z,46.90
2023-04-28T22:11:39.454Z,46.70
2023-04-28T22:16:43.905Z,46.70
2023-04-28T22:21:47.253Z,47.10
2023-04-28T22:26:50.379Z,46.80
2023-04-28T22:31:54.890Z,46.70
2023-04-28T22:36:57.985Z,47.20
2023-04-28T22:42:01.058Z,46.80
2023-04-28T22:47:05.533Z,46.80
2023-04-28T22:52:08.585Z,47.40
2023-04-28T22:57:11.646Z,46.90
2023-04-28T23:02:16.107Z,46.90
2023-04-28T23:07:19.281Z,47.40
2023-04-28T23:12:22.368Z,47.00
2023-04-28T23:17:27.071Z,46.90
2023-04-28T23:22:30.184Z,47.20
2023-04-28T23:27:33.253Z,46.80
2023-04-28T23:32:38.588Z,46.80
2023-04-28T23:37:42.064Z,47.40
2023-04-28T23:42:45.114Z,46.80
2023-04-28T23:47:49.580Z,46.80
2023-04-28T23:52:52.672Z,47.20
2023-04-28T23:57:55.762Z,47.00
